Time;durP1;ratioP1;P1;durP2;ratioP2;P2;SDS_P1;SDS_P2;PMS_P1;PMS_P2;Temp;Humidity;BMP_temperature;BMP_pressure;BME280_temperature;BME280_humidity;BME280_pressure;Samples;Min_cycle;Max_cycle;Signal;HPM_P1;HPM_P2
2023/05/05 00:01:59;;;;;;;11.18;7.25;;;25.80;99.90;;;;;;4992858;28;20042;-47
2023/05/05 00:04:25;;;;;;;9.57;6.65;;;25.80;99.90;;;;;;4993554;28;20039;-47
2023/05/05 00:06:51;;;;;;;9.77;6.80;;;25.80;99.90;;;;;;4993681;28;20377;-47
2023/05/05 00:09:17;;;;;;;11.35;7.63;;;25.80;99.90;;;;;;4993810;28;20035;-47
2023/05/05 00:11:43;;;;;;;10.02;7.32;;;25.80;99.90;;;;;;4993652;28;20029;-50
2023/05/05 00:14:08;;;;;;;9.40;6.35;;;25.80;99.90;;;;;;4993551;28;20038;-47
2023/05/05 00:16:34;;;;;;;11.68;6.60;;;25.80;99.90;;;;;;4993603;28;20023;-48
2023/05/05 00:19:00;;;;;;;9.43;5.90;;;25.80;99.90;;;;;;4993697;28;20499;-47
2023/05/05 00:21:26;;;;;;;11.38;7.07;;;25.80;99.90;;;;;;4993072;28;20657;-47
2023/05/05 00:23:52;;;;;;;9.57;7.03;;;25.80;99.90;;;;;;4993503;28;20026;-47
2023/05/05 00:26:18;;;;;;;13.68;6.55;;;25.80;99.90;;;;;;4978229;28;20097;-47
2023/05/05 00:28:44;;;;;;;9.65;7.05;;;25.80;99.90;;;;;;4993075;28;20110;-47
2023/05/05 00:31:10;;;;;;;10.10;6.68;;;25.80;99.90;;;;;;4993225;28;20399;-47
2023/05/05 00:33:36;;;;;;;11.45;6.40;;;25.80;99.90;;;;;;4993089;28;20034;-46
2023/05/05 00:36:01;;;;;;;9.90;7.07;;;25.70;99.90;;;;;;4992961;28;20027;-46
2023/05/05 00:38:27;;;;;;;9.30;7.47;;;25.80;99.90;;;;;;4993109;28;20054;-47
2023/05/05 00:40:53;;;;;;;9.30;6.80;;;25.80;99.90;;;;;;4993148;28;20022;-47
2023/05/05 00:43:19;;;;;;;10.80;6.65;;;25.70;99.90;;;;;;4993306;28;20380;-47
2023/05/05 00:45:46;;;;;;;13.18;7.53;;;25.70;99.90;;;;;;4993133;28;20069;-46
2023/05/05 00:48:13;;;;;;;9.43;6.47;;;25.70;99.90;;;;;;4992995;28;20037;-47
2023/05/05 00:50:42;;;;;;;10.10;7.25;;;25.70;99.90;;;;;;4993053;28;20026;-47
2023/05/05 00:53:07;;;;;;;7.70;5.97;;;25.70;99.90;;;;;;4992799;28;20476;-47
2023/05/05 00:55:34;;;;;;;7.85;5.97;;;25.70;99.90;;;;;;4991922;28;20029;-47
2023/05/05 00:58:02;;;;;;;9.88;6.18;;;25.70;99.90;;;;;;4992800;28;20030;-46
2023/05/05 01:00:28;;;;;;;11.20;6.63;;;25.70;99.90;;;;;;5024552;23;21644;-43
2023/05/05 01:02:55;;;;;;;9.82;6.25;;;25.70;99.90;;;;;;4992495;28;20031;-43
2023/05/05 01:05:22;;;;;;;9.40;6.57;;;25.70;99.90;;;;;;4992724;28;20030;-43
2023/05/05 01:07:54;;;;;;;8.70;6.93;;;25.70;99.90;;;;;;4992659;28;20034;-43
2023/05/05 01:10:32;;;;;;;9.68;5.90;;;25.70;99.90;;;;;;4991422;28;20037;-43
2023/05/05 01:13:06;;;;;;;10.90;7.07;;;25.70;99.90;;;;;;4992345;28;20168;-43
2023/05/05 01:15:33;;;;;;;9.60;7.18;;;25.70;99.90;;;;;;4991946;28;20023;-43
2023/05/05 01:18:03;;;;;;;9.00;5.72;;;25.70;99.90;;;;;;4992771;28;20197;-43
2023/05/05 01:20:40;;;;;;;9.15;6.25;;;25.70;99.90;;;;;;4992665;28;20026;-43
2023/05/05 01:23:08;;;;;;;8.95;6.32;;;25.60;99.90;;;;;;5004454;28;20022;-44
2023/05/05 01:25:57;;;;;;;9.70;6.60;;;25.70;99.90;;;;;;4992676;28;20066;-43
2023/05/05 01:28:25;;;;;;;10.85;6.60;;;25.60;99.90;;;;;;4981112;28;20369;-43
2023/05/05 01:31:03;;;;;;;9.73;6.05;;;25.60;99.90;;;;;;4992291;28;20026;-45
2023/05/05 01:33:42;;;;;;;11.00;7.22;;;25.60;99.90;;;;;;4999265;28;20499;-45
2023/05/05 01:36:14;;;;;;;8.82;5.82;;;25.60;99.90;;;;;;4995335;28;20034;-45
2023/05/05 01:38:42;;;;;;;10.85;6.03;;;25.60;99.90;;;;;;4992661;28;20106;-45
2023/05/05 01:41:11;;;;;;;10.25;6.70;;;25.60;99.90;;;;;;4992415;28;20014;-45
2023/05/05 01:43:38;;;;;;;8.45;6.35;;;25.60;99.90;;;;;;4992490;28;20022;-45
2023/05/05 01:46:06;;;;;;;11.80;7.25;;;25.60;99.90;;;;;;4992294;28;20030;-45
2023/05/05 01:48:32;;;;;;;10.43;7.00;;;25.60;99.90;;;;;;4992457;28;20033;-45
2023/05/05 01:51:01;;;;;;;10.48;7.30;;;25.60;99.90;;;;;;4992157;28;20031;-45
2023/05/05 01:53:29;;;;;;;8.13;6.20;;;25.60;99.90;;;;;;4992020;28;20524;-45
2023/05/05 01:55:56;;;;;;;9.70;5.80;;;25.50;99.90;;;;;;4992378;28;20026;-45
2023/05/05 01:58:23;;;;;;;;;;;25.50;99.90;;;;;;4992601;28;20030;-44
2023/05/05 02:00:50;;;;;;;10.63;7.40;;;25.50;99.90;;;;;;4991763;28;19925;-45
2023/05/05 02:03:17;;;;;;;8.95;7.25;;;25.50;99.90;;;;;;4991040;28;20038;-44
2023/05/05 02:05:46;;;;;;;10.03;6.57;;;25.50;99.90;;;;;;4992051;28;20527;-44
2023/05/05 02:08:12;;;;;;;11.95;7.65;;;25.50;99.90;;;;;;4992126;28;20040;-44
2023/05/05 02:10:41;;;;;;;9.32;6.63;;;25.50;99.90;;;;;;4992215;28;20022;-44
2023/05/05 02:13:11;;;;;;;8.82;7.07;;;25.50;99.90;;;;;;4992242;28;20042;-44
2023/05/05 02:15:38;;;;;;;12.73;7.20;;;25.50;99.90;;;;;;4991989;28;20018;-45
2023/05/05 02:18:07;;;;;;;9.30;7.10;;;25.50;99.90;;;;;;4992134;28;20404;-44
2023/05/05 02:20:36;;;;;;;9.38;6.88;;;25.50;99.90;;;;;;4992159;28;20113;-45
2023/05/05 02:23:04;;;;;;;10.63;7.43;;;25.50;99.90;;;;;;4991794;28;20511;-45
2023/05/05 02:25:37;;;;;;;11.40;6.82;;;25.50;99.90;;;;;;4993578;28;20034;-44
2023/05/05 02:28:04;;;;;;;9.43;6.65;;;25.50;99.90;;;;;;4995400;28;20452;-44
2023/05/05 02:30:34;;;;;;;9.38;6.88;;;25.50;99.90;;;;;;4995322;28;20026;-44
2023/05/05 02:33:06;;;;;;;10.43;7.45;;;25.50;99.90;;;;;;4995189;28;20077;-45
2023/05/05 02:35:36;;;;;;;12.27;7.80;;;25.50;99.90;;;;;;4995522;28;20392;-44
2023/05/05 02:38:05;;;;;;;10.23;7.15;;;25.50;99.90;;;;;;4995164;28;20380;-44
2023/05/05 02:40:33;;;;;;;11.48;6.90;;;25.40;99.90;;;;;;4995439;28;20026;-44
2023/05/05 02:43:04;;;;;;;12.52;7.30;;;25.40;99.90;;;;;;4995294;28;20029;-44
2023/05/05 02:45:30;;;;;;;10.20;6.55;;;25.40;99.90;;;;;;4994981;28;20480;-44
2023/05/05 02:47:56;;;;;;;13.98;7.95;;;25.40;99.90;;;;;;4995165;28;20025;-44
2023/05/05 02:50:22;;;;;;;9.50;7.15;;;25.40;99.90;;;;;;4995265;28;20358;-45
2023/05/05 02:52:48;;;;;;;9.10;6.00;;;25.40;99.90;;;;;;4994633;28;20057;-44
2023/05/05 02:55:14;;;;;;;11.05;7.38;;;25.40;99.90;;;;;;4995408;28;20018;-45
2023/05/05 02:57:47;;;;;;;10.15;7.40;;;25.40;99.90;;;;;;4995009;28;20436;-44
2023/05/05 03:00:25;;;;;;;11.02;7.60;;;25.40;99.90;;;;;;4995606;28;20022;-45
2023/05/05 03:03:01;;;;;;;9.38;6.97;;;25.40;99.90;;;;;;4994712;28;20150;-44
2023/05/05 03:05:54;;;;;;;10.93;7.40;;;25.40;99.90;;;;;;4995055;28;20022;-44
2023/05/05 03:08:25;;;;;;;12.27;7.07;;;25.40;99.90;;;;;;4994324;28;20045;-45
2023/05/05 03:11:04;;;;;;;10.10;7.47;;;25.40;99.90;;;;;;4994635;28;20034;-43
2023/05/05 03:13:33;;;;;;;9.52;6.70;;;25.40;99.90;;;;;;4994674;28;20154;-45
2023/05/05 03:16:05;;;;;;;10.88;7.72;;;25.40;99.90;;;;;;4993239;28;20028;-45
2023/05/05 03:18:33;;;;;;;10.30;7.13;;;25.40;99.90;;;;;;4993468;28;20026;-45
2023/05/05 03:21:07;;;;;;;10.18;6.95;;;25.40;99.90;;;;;;4994674;28;20110;-48
2023/05/05 03:23:33;;;;;;;11.80;7.40;;;25.40;99.90;;;;;;4994602;28;20035;-45
2023/05/05 03:25:59;;;;;;;10.02;7.43;;;25.40;99.90;;;;;;4994533;28;20042;-45
2023/05/05 03:28:25;;;;;;;9.73;7.05;;;25.40;99.90;;;;;;4994525;28;20036;-45
2023/05/05 03:30:52;;;;;;;12.23;7.20;;;25.40;99.90;;;;;;4994160;28;20026;-45
2023/05/05 03:33:17;;;;;;;12.05;7.13;;;25.40;99.90;;;;;;4994446;28;20038;-45
2023/05/05 03:35:43;;;;;;;11.02;6.88;;;25.40;99.90;;;;;;4994433;28;20022;-45
2023/05/05 03:38:09;;;;;;;12.07;7.28;;;25.40;99.90;;;;;;4993377;28;20116;-45
2023/05/05 03:40:35;;;;;;;10.75;6.60;;;25.40;99.90;;;;;;4994353;28;20113;-45
2023/05/05 03:43:01;;;;;;;10.52;7.60;;;25.40;99.90;;;;;;4994138;28;20033;-45
2023/05/05 03:45:26;;;;;;;9.05;6.85;;;25.40;99.90;;;;;;4993873;28;20416;-45
2023/05/05 03:47:52;;;;;;;10.98;6.45;;;25.40;99.90;;;;;;5006928;28;20108;-45
2023/05/05 03:50:18;;;;;;;9.90;7.47;;;25.40;99.90;;;;;;4994158;28;20023;-45
2023/05/05 03:52:44;;;;;;;10.43;6.60;;;25.40;99.90;;;;;;4993964;28;20029;-45
2023/05/05 03:55:09;;;;;;;11.63;6.93;;;25.30;99.90;;;;;;4992704;28;20117;-46
2023/05/05 03:57:35;;;;;;;10.98;6.90;;;25.30;99.90;;;;;;4993756;28;20428;-46
2023/05/05 04:00:01;;;;;;;9.50;6.68;;;25.30;99.90;;;;;;4993879;28;20030;-45
2023/05/05 04:02:27;;;;;;;11.63;6.90;;;25.30;99.90;;;;;;4993933;28;20082;-45
2023/05/05 04:04:53;;;;;;;8.90;6.05;;;25.30;99.90;;;;;;4992725;28;20511;-46
2023/05/05 04:07:18;;;;;;;10.70;6.97;;;25.30;99.90;;;;;;4992472;28;20030;-45
2023/05/05 04:09:44;;;;;;;8.82;6.60;;;25.30;99.90;;;;;;4993770;28;20431;-45
2023/05/05 04:12:11;;;;;;;8.85;6.75;;;25.30;99.90;;;;;;4993543;28;20476;-45
2023/05/05 04:14:36;;;;;;;11.80;7.47;;;25.30;99.90;;;;;;4993194;28;20019;-50
2023/05/05 04:17:02;;;;;;;12.98;7.22;;;25.30;99.90;;;;;;4993627;28;20077;-46
2023/05/05 04:19:31;;;;;;;11.95;7.47;;;25.30;99.90;;;;;;4993342;28;20522;-45
2023/05/05 04:21:57;;;;;;;11.68;7.28;;;25.30;99.90;;;;;;4993310;28;20473;-45
2023/05/05 04:24:23;;;;;;;8.80;6.38;;;25.30;99.90;;;;;;4993252;28;20037;-45
2023/05/05 04:26:52;;;;;;;9.63;6.70;;;25.30;99.90;;;;;;4993453;28;20536;-45
2023/05/05 04:29:18;;;;;;;10.13;7.40;;;25.20;99.90;;;;;;4993306;28;20030;-45
2023/05/05 04:31:44;;;;;;;9.88;6.22;;;25.30;99.90;;;;;;4993440;28;20029;-45
2023/05/05 04:34:10;;;;;;;10.85;7.15;;;25.30;99.90;;;;;;4991874;28;20039;-45
2023/05/05 04:36:36;;;;;;;9.65;6.35;;;25.20;99.90;;;;;;4993042;28;20038;-45
2023/05/05 04:39:02;;;;;;;11.30;7.25;;;25.20;99.90;;;;;;5004041;28;20034;-45
2023/05/05 04:41:27;;;;;;;11.13;6.93;;;25.20;99.90;;;;;;4993834;28;20472;-45
2023/05/05 04:43:56;;;;;;;10.43;6.70;;;25.20;99.90;;;;;;4992746;28;20030;-45
2023/05/05 04:46:23;;;;;;;11.95;7.28;;;25.20;99.90;;;;;;4993064;28;20041;-45
2023/05/05 04:48:49;;;;;;;8.77;6.97;;;25.20;99.90;;;;;;4992548;28;20535;-45
2023/05/05 04:51:15;;;;;;;8.63;6.32;;;25.20;99.90;;;;;;4992979;28;20113;-45
2023/05/05 04:53:41;;;;;;;12.05;7.15;;;25.20;99.90;;;;;;4992853;28;20480;-44
2023/05/05 04:56:07;;;;;;;14.25;7.20;;;25.20;99.90;;;;;;4992740;28;20033;-45
2023/05/05 04:58:32;;;;;;;11.30;6.78;;;25.20;99.90;;;;;;4992813;28;20041;-44
2023/05/05 05:00:58;;;;;;;11.15;6.45;;;25.20;99.90;;;;;;4992581;28;20412;-45
2023/05/05 05:03:24;;;;;;;10.07;6.38;;;25.20;99.90;;;;;;4992859;28;20071;-45
2023/05/05 05:05:50;;;;;;;12.68;7.03;;;25.10;99.90;;;;;;4992950;28;20392;-44
2023/05/05 05:08:16;;;;;;;9.70;6.65;;;25.20;99.90;;;;;;4992640;28;20027;-45
2023/05/05 05:10:42;;;;;;;10.40;6.60;;;25.10;99.90;;;;;;4992512;28;20358;-45
2023/05/05 05:13:08;;;;;;;10.55;6.55;;;25.20;99.90;;;;;;4992599;28;20604;-45
2023/05/05 05:15:37;;;;;;;9.07;6.53;;;25.10;99.90;;;;;;4992568;28;20468;-45
2023/05/05 05:18:03;;;;;;;8.15;5.90;;;25.10;99.90;;;;;;4996061;28;20562;-44
2023/05/05 05:20:29;;;;;;;8.90;5.70;;;25.10;99.90;;;;;;5000778;28;20026;-45
2023/05/05 05:22:56;;;;;;;7.53;5.28;;;25.10;99.90;;;;;;4992238;28;20084;-45
2023/05/05 05:25:22;;;;;;;8.18;5.80;;;25.10;99.90;;;;;;4992514;28;20023;-45
2023/05/05 05:27:48;;;;;;;8.45;5.38;;;25.10;99.90;;;;;;4992594;28;20081;-45
2023/05/05 05:30:14;;;;;;;9.55;5.75;;;25.10;99.90;;;;;;4992389;28;20022;-45
2023/05/05 05:32:40;;;;;;;9.70;6.30;;;25.10;99.90;;;;;;4992243;28;20515;-44
2023/05/05 05:35:06;;;;;;;7.70;5.18;;;25.10;99.90;;;;;;4992417;28;20050;-44
2023/05/05 05:37:33;;;;;;;9.38;5.72;;;25.10;99.90;;;;;;4992841;28;20511;-45
2023/05/05 05:39:59;;;;;;;8.63;5.70;;;25.10;99.90;;;;;;5004606;28;20465;-45
2023/05/05 05:42:25;;;;;;;10.35;5.68;;;25.10;99.90;;;;;;4992329;28;20101;-45
2023/05/05 05:44:50;;;;;;;8.68;5.97;;;25.10;99.90;;;;;;4992436;28;20019;-45
2023/05/05 05:47:16;;;;;;;10.00;6.47;;;25.10;99.90;;;;;;4992648;28;20451;-44
2023/05/05 05:49:42;;;;;;;8.18;5.47;;;25.00;99.90;;;;;;4992109;28;20029;-44
2023/05/05 05:52:07;;;;;;;7.70;5.28;;;25.10;99.90;;;;;;4992202;28;20491;-45
2023/05/05 05:54:34;;;;;;;7.90;5.75;;;25.10;99.90;;;;;;4992127;28;20023;-44
2023/05/05 05:57:01;;;;;;;8.00;5.65;;;25.00;99.90;;;;;;4992247;28;20019;-45
2023/05/05 05:59:27;;;;;;;10.65;5.57;;;25.00;99.90;;;;;;4992033;28;20019;-45
2023/05/05 06:01:54;;;;;;;8.80;6.55;;;25.00;99.90;;;;;;4996017;28;20113;-45
2023/05/05 06:04:20;;;;;;;11.77;6.20;;;25.00;99.90;;;;;;4996089;28;20031;-45
2023/05/05 06:06:46;;;;;;;9.15;5.78;;;25.00;99.90;;;;;;4995875;28;20109;-45
2023/05/05 06:09:12;;;;;;;9.32;5.57;;;25.00;99.90;;;;;;4995725;28;20046;-45
2023/05/05 06:11:37;;;;;;;8.95;5.68;;;25.00;99.90;;;;;;4995983;28;20019;-45
2023/05/05 06:14:05;;;;;;;10.00;6.63;;;25.00;99.90;;;;;;4995810;28;20054;-46
2023/05/05 06:16:31;;;;;;;8.95;5.93;;;25.00;99.90;;;;;;4995751;28;20549;-45
2023/05/05 06:18:56;;;;;;;8.77;5.72;;;25.10;99.90;;;;;;4995773;28;20026;-45
2023/05/05 06:21:22;;;;;;;8.18;5.70;;;25.00;99.90;;;;;;4995621;28;20431;-45
2023/05/05 06:23:48;;;;;;;9.30;5.40;;;25.00;99.90;;;;;;4995481;28;20370;-45
2023/05/05 06:26:13;;;;;;;8.25;5.65;;;25.00;99.90;;;;;;4994439;28;20028;-45
2023/05/05 06:28:40;;;;;;;7.65;5.60;;;25.00;99.90;;;;;;4995752;28;20477;-45
2023/05/05 06:31:06;;;;;;;11.23;5.65;;;25.00;99.90;;;;;;4995101;28;20469;-45
2023/05/05 06:33:32;;;;;;;9.60;5.90;;;25.00;99.90;;;;;;4995392;28;20051;-46
2023/05/05 06:35:58;;;;;;;7.20;5.15;;;25.10;99.90;;;;;;4995186;28;20022;-45
2023/05/05 06:38:24;;;;;;;7.70;4.93;;;25.10;99.90;;;;;;4995432;28;20030;-45
2023/05/05 06:40:49;;;;;;;9.68;5.65;;;25.10;99.90;;;;;;4995339;28;20385;-45
2023/05/05 06:43:16;;;;;;;9.30;5.70;;;25.10;99.90;;;;;;4994230;28;20053;-45
2023/05/05 06:45:42;;;;;;;7.32;6.13;;;25.10;99.90;;;;;;4995003;28;20018;-45
2023/05/05 06:48:08;;;;;;;8.13;5.57;;;25.10;99.90;;;;;;4980992;28;20026;-45
2023/05/05 06:50:33;;;;;;;6.13;4.57;;;25.10;99.90;;;;;;4995111;28;20100;-45
2023/05/05 06:53:00;;;;;;;7.45;5.43;;;25.10;99.90;;;;;;4994550;28;20034;-45
2023/05/05 06:55:26;;;;;;;5.43;4.63;;;25.10;99.90;;;;;;4995166;28;20372;-45
2023/05/05 06:57:51;;;;;;;6.88;4.93;;;25.10;99.90;;;;;;4994924;28;20022;-45
2023/05/05 07:00:18;;;;;;;9.40;5.38;;;25.10;99.90;;;;;;4994611;28;20380;-44
2023/05/05 07:02:44;;;;;;;6.75;5.18;;;25.10;99.90;;;;;;4994854;28;20431;-45
2023/05/05 07:05:09;;;;;;;7.35;5.30;;;25.10;99.90;;;;;;4994902;28;20077;-46
2023/05/05 07:07:36;;;;;;;8.35;4.75;;;25.10;99.90;;;;;;4994572;28;20019;-45
2023/05/05 07:10:02;;;;;;;8.40;5.43;;;25.10;99.90;;;;;;4994815;28;20026;-44
2023/05/05 07:12:31;;;;;;;7.55;4.55;;;25.20;99.90;;;;;;4993577;28;20108;-44
2023/05/05 07:14:57;;;;;;;9.82;4.60;;;25.10;99.90;;;;;;4994507;28;20057;-45
2023/05/05 07:17:23;;;;;;;6.57;4.80;;;25.10;99.90;;;;;;4994663;28;20054;-45
2023/05/05 07:19:50;;;;;;;8.43;4.03;;;25.20;99.90;;;;;;4994893;28;20019;-45
2023/05/05 07:22:15;;;;;;;9.60;5.20;;;25.20;99.90;;;;;;4994430;28;20089;-45
2023/05/05 07:24:41;;;;;;;7.40;4.80;;;25.20;99.90;;;;;;4993338;28;20022;-44
2023/05/05 07:27:07;;;;;;;7.30;4.43;;;25.20;99.90;;;;;;5005129;28;20073;-45
2023/05/05 07:29:33;;;;;;;7.10;5.10;;;25.20;99.90;;;;;;4996324;28;20032;-45
2023/05/05 07:31:58;;;;;;;7.03;5.13;;;25.20;99.90;;;;;;4994518;28;20018;-45
2023/05/05 07:34:24;;;;;;;6.40;4.82;;;25.20;99.90;;;;;;4994537;28;20030;-45
2023/05/05 07:36:50;;;;;;;6.35;4.70;;;25.20;99.90;;;;;;4993998;28;20030;-46
2023/05/05 07:39:18;;;;;;;8.50;4.60;;;25.20;99.90;;;;;;4993996;28;20026;-45
2023/05/05 07:41:43;;;;;;;;;;;25.20;99.90;;;;;;4994562;28;20057;-44
2023/05/05 07:44:10;;;;;;;5.95;5.10;;;25.30;99.90;;;;;;4993887;28;19992;-45
2023/05/05 07:46:36;;;;;;;7.57;4.60;;;25.30;99.90;;;;;;4994004;28;20018;-44
2023/05/05 07:49:02;;;;;;;5.90;4.55;;;25.20;99.90;;;;;;4994167;28;20496;-45
2023/05/05 07:51:28;;;;;;;5.32;4.63;;;25.30;99.90;;;;;;4993911;28;20026;-45
2023/05/05 07:53:54;;;;;;;6.65;4.57;;;25.30;99.90;;;;;;4994178;28;20030;-45
2023/05/05 07:56:20;;;;;;;7.57;5.20;;;25.30;99.90;;;;;;4993761;28;20113;-45
2023/05/05 07:58:46;;;;;;;9.50;5.15;;;25.30;99.90;;;;;;4993617;28;20050;-45
2023/05/05 08:01:12;;;;;;;15.48;8.25;;;25.30;99.90;;;;;;4993782;28;20046;-44
2023/05/05 08:03:37;;;;;;;18.15;10.25;;;25.30;99.90;;;;;;4993891;28;20070;-44
2023/05/05 08:06:11;;;;;;;19.42;10.60;;;25.20;99.90;;;;;;4993545;28;20026;-44
2023/05/05 08:08:37;;;;;;;24.45;11.00;;;25.20;99.90;;;;;;4993765;28;20030;-44
2023/05/05 08:11:05;;;;;;;24.95;9.60;;;25.10;99.90;;;;;;4993438;28;20041;-44
2023/05/05 08:13:30;;;;;;;18.45;9.90;;;25.00;99.90;;;;;;4993676;28;20035;-44
2023/05/05 08:15:56;;;;;;;13.02;7.20;;;25.00;99.90;;;;;;4993480;28;20026;-44
2023/05/05 08:18:23;;;;;;;13.10;6.38;;;24.90;99.90;;;;;;4993460;28;20050;-44
2023/05/05 08:20:49;;;;;;;11.03;6.33;;;24.90;99.90;;;;;;4993345;28;20015;-44
2023/05/05 08:23:15;;;;;;;11.73;5.57;;;24.90;99.90;;;;;;4993063;28;20015;-44
2023/05/05 08:25:43;;;;;;;7.07;4.88;;;24.90;99.90;;;;;;4993262;28;20038;-44
2023/05/05 08:28:09;;;;;;;15.27;6.05;;;24.90;99.90;;;;;;4993384;28;20484;-45
2023/05/05 08:30:35;;;;;;;9.65;5.18;;;25.00;99.90;;;;;;4993735;28;20041;-43
2023/05/05 08:33:00;;;;;;;11.68;5.53;;;25.00;99.90;;;;;;5005651;28;20030;-44
2023/05/05 08:35:26;;;;;;;11.32;5.60;;;25.00;99.90;;;;;;4992239;28;20084;-44
2023/05/05 08:37:52;;;;;;;9.20;4.72;;;25.00;99.90;;;;;;4993066;28;20033;-44
2023/05/05 08:40:20;;;;;;;10.35;4.97;;;25.00;99.90;;;;;;4992950;28;20037;-44
2023/05/05 08:42:45;;;;;;;;;;;25.00;99.90;;;;;;4993477;28;20093;-44
2023/05/05 08:45:11;;;;;;;8.52;4.15;;;25.10;99.90;;;;;;4992911;28;19949;-45
2023/05/05 08:47:37;;;;;;;12.63;6.03;;;25.10;99.90;;;;;;4992768;28;20030;-44
2023/05/05 08:50:06;;;;;;;8.10;4.43;;;25.10;99.90;;;;;;4993070;28;20026;-44
2023/05/05 08:52:43;;;;;;;12.13;5.05;;;25.10;99.90;;;;;;4992471;28;20550;-44
2023/05/05 08:55:23;;;;;;;10.98;5.47;;;25.10;99.90;;;;;;4991745;28;20042;-44
2023/05/05 08:58:00;;;;;;;9.30;5.10;;;25.10;99.90;;;;;;4991671;28;20066;-43
2023/05/05 09:00:26;;;;;;;13.20;4.70;;;25.10;99.90;;;;;;4992415;28;20519;-43
2023/05/05 09:02:55;;;;;;;12.02;4.93;;;25.10;99.90;;;;;;4992894;28;20042;-44
2023/05/05 09:05:21;;;;;;;9.82;4.50;;;25.10;99.90;;;;;;4992630;28;20032;-43
2023/05/05 09:07:47;;;;;;;8.27;4.63;;;25.10;99.90;;;;;;4992294;28;20034;-44
2023/05/05 09:10:13;;;;;;;12.13;5.88;;;25.20;99.90;;;;;;4992595;28;20030;-44
2023/05/05 09:12:40;;;;;;;8.13;4.07;;;25.10;99.90;;;;;;4992301;28;20081;-43
2023/05/05 09:15:08;;;;;;;11.57;5.72;;;25.20;99.90;;;;;;4991174;28;20030;-43
2023/05/05 09:17:34;;;;;;;9.32;5.00;;;25.20;99.90;;;;;;4992520;28;20069;-43
2023/05/05 09:20:05;;;;;;;11.75;4.55;;;25.20;99.90;;;;;;4992794;28;20038;-43
2023/05/05 09:22:43;;;;;;;21.52;13.88;;;25.20;99.90;;;;;;5003457;28;20050;-43
2023/05/05 09:25:10;;;;;;;;;;;25.20;99.90;;;;;;4980214;28;20023;-43
2023/05/05 09:27:40;;;;;;;;;;;25.30;99.90;;;;;;4992777;28;20013;-44
2023/05/05 09:30:07;;;;;;;12.30;5.88;;;25.30;99.90;;;;;;4990861;28;20291;-43
2023/05/05 09:32:43;;;;;;;11.50;6.05;;;25.30;99.90;;;;;;4991260;28;20101;-43
2023/05/05 09:35:08;;;;;;;10.18;5.28;;;25.30;99.90;;;;;;4993455;28;20035;-44
2023/05/05 09:37:34;;;;;;;12.52;5.55;;;25.30;99.90;;;;;;4996438;28;20022;-42
2023/05/05 09:40:00;;;;;;;11.10;6.32;;;25.30;99.90;;;;;;4995570;28;20033;-43
2023/05/05 09:42:26;;;;;;;11.88;5.78;;;25.30;99.90;;;;;;4995210;28;20022;-44
2023/05/05 09:44:52;;;;;;;14.18;6.30;;;25.30;99.90;;;;;;4996276;28;20073;-44
2023/05/05 09:47:19;;;;;;;8.25;5.82;;;25.30;99.90;;;;;;4996239;28;20019;-44
2023/05/05 09:49:57;;;;;;;17.20;6.50;;;25.30;99.90;;;;;;4996214;28;20433;-44
2023/05/05 09:52:23;;;;;;;12.43;5.65;;;25.30;99.90;;;;;;4995983;28;20031;-44
2023/05/05 09:54:55;;;;;;;9.63;5.70;;;25.30;99.90;;;;;;4996154;28;20027;-44
2023/05/05 09:57:27;;;;;;;11.38;5.07;;;25.30;99.90;;;;;;4996190;28;20061;-44
2023/05/05 09:59:55;;;;;;;9.98;6.13;;;25.30;99.90;;;;;;4995633;28;20022;-44
2023/05/05 10:02:30;;;;;;;11.13;5.35;;;25.30;99.90;;;;;;4995936;28;20174;-45
2023/05/05 10:05:16;;;;;;;9.07;5.65;;;25.30;99.90;;;;;;4995980;28;20073;-44
2023/05/05 10:07:46;;;;;;;10.85;5.25;;;25.30;99.90;;;;;;4995831;28;20026;-45
2023/05/05 10:10:14;;;;;;;9.85;5.63;;;25.40;99.90;;;;;;4995934;28;20026;-44
2023/05/05 10:12:40;;;;;;;13.98;5.43;;;25.40;99.90;;;;;;4994519;28;20113;-45
2023/05/05 10:15:08;;;;;;;9.47;4.50;;;25.40;99.90;;;;;;5001443;28;20018;-45
2023/05/05 10:17:46;;;;;;;7.50;5.32;;;25.40;99.90;;;;;;5003083;28;20061;-45
2023/05/05 10:20:12;;;;;;;;;;;25.40;99.90;;;;;;4996345;28;20057;-45
2023/05/05 10:22:41;;;;;;;9.73;5.20;;;25.40;99.90;;;;;;4995553;28;19906;-45
2023/05/05 10:25:14;;;;;;;11.45;5.90;;;25.40;99.90;;;;;;4995572;28;20042;-45
2023/05/05 10:27:45;;;;;;;10.23;5.63;;;25.40;99.90;;;;;;4995555;28;20034;-45
2023/05/05 10:30:25;;;;;;;13.80;5.45;;;25.40;99.90;;;;;;4995492;28;20023;-45
2023/05/05 10:32:56;;;;;;;9.95;4.57;;;25.40;99.90;;;;;;4995163;28;20026;-45
2023/05/05 10:35:25;;;;;;;11.32;4.78;;;25.40;99.90;;;;;;4995522;28;20381;-45
2023/05/05 10:37:52;;;;;;;9.68;4.72;;;25.50;99.90;;;;;;4995195;28;20472;-45
2023/05/05 10:40:21;;;;;;;7.53;4.25;;;25.50;99.90;;;;;;4995468;28;20030;-45
2023/05/05 10:42:48;;;;;;;10.07;4.47;;;25.50;99.90;;;;;;4994051;28;20022;-45
2023/05/05 10:45:14;;;;;;;9.52;4.28;;;25.50;99.90;;;;;;4995273;28;20034;-45
2023/05/05 10:47:40;;;;;;;9.13;4.13;;;25.50;99.90;;;;;;4994050;28;20033;-45
2023/05/05 10:50:20;;;;;;;6.90;3.83;;;25.50;99.90;;;;;;4994086;28;20022;-45
2023/05/05 10:53:11;;;;;;;11.85;3.53;;;25.50;99.90;;;;;;4994972;28;20081;-45
2023/05/05 10:56:07;;;;;;;10.75;4.20;;;25.50;99.90;;;;;;4995472;28;20041;-44
2023/05/05 10:58:32;;;;;;;8.63;4.60;;;25.60;99.90;;;;;;4995174;28;20026;-45
2023/05/05 11:00:58;;;;;;;8.35;3.63;;;25.60;99.90;;;;;;4994473;28;20058;-46
2023/05/05 11:03:25;;;;;;;10.57;3.88;;;25.60;99.90;;;;;;4994861;28;20054;-44
2023/05/05 11:06:02;;;;;;;9.77;3.50;;;25.60;99.90;;;;;;4994838;28;20026;-44
2023/05/05 11:08:41;;;;;;;8.65;2.97;;;25.60;99.90;;;;;;4994555;28;20019;-45
2023/05/05 11:11:09;;;;;;;7.63;3.58;;;25.60;99.90;;;;;;4994853;28;20113;-45
2023/05/05 11:13:36;;;;;;;8.27;3.92;;;25.60;99.90;;;;;;4994837;28;20369;-45
2023/05/05 11:16:03;;;;;;;10.98;4.25;;;25.60;99.90;;;;;;4994994;28;20022;-44
2023/05/05 11:18:37;;;;;;;7.45;3.78;;;25.70;99.90;;;;;;4994570;28;20507;-45
2023/05/05 11:21:16;;;;;;;7.35;3.50;;;25.70;99.90;;;;;;4994804;28;20018;-45
2023/05/05 11:23:51;;;;;;;10.07;3.45;;;25.70;99.90;;;;;;4994370;28;20026;-45
2023/05/05 11:26:38;;;;;;;8.57;3.28;;;25.70;99.90;;;;;;4994454;28;20093;-43
2023/05/05 11:29:04;;;;;;;9.10;3.90;;;25.70;99.90;;;;;;4994370;28;20076;-43
2023/05/05 11:31:31;;;;;;;8.18;3.88;;;25.70;99.90;;;;;;4994034;28;20392;-45
2023/05/05 11:34:27;;;;;;;9.30;3.53;;;25.70;99.90;;;;;;4994281;28;20034;-46
2023/05/05 11:37:02;;;;;;;9.25;3.70;;;25.80;99.90;;;;;;4983272;28;20033;-44
2023/05/05 11:40:14;;;;;;;9.88;3.63;;;25.80;99.90;;;;;;4992717;28;20054;-44
2023/05/05 11:42:40;;;;;;;11.57;4.63;;;25.80;99.90;;;;;;4994802;28;20034;-44
2023/05/05 11:45:23;;;;;;;10.40;4.38;;;25.80;99.90;;;;;;5005727;28;20472;-44
2023/05/05 11:47:49;;;;;;;11.82;3.95;;;25.80;99.90;;;;;;4994099;28;20069;-44
2023/05/05 11:50:16;;;;;;;9.00;3.78;;;25.80;99.90;;;;;;4993966;28;20030;-45
2023/05/05 11:52:42;;;;;;;11.63;5.07;;;25.80;99.90;;;;;;4992373;28;20392;-44
2023/05/05 11:55:08;;;;;;;9.73;4.28;;;25.80;99.90;;;;;;4994197;28;20085;-44
2023/05/05 11:57:34;;;;;;;11.95;4.20;;;25.90;99.90;;;;;;4993651;28;20054;-44
2023/05/05 12:00:02;;;;;;;11.35;4.60;;;25.80;99.90;;;;;;4993627;28;20746;-44
2023/05/05 12:02:29;;;;;;;9.30;4.28;;;25.90;99.90;;;;;;5006424;28;20038;-44
2023/05/05 12:04:55;;;;;;;5.88;3.95;;;25.90;99.90;;;;;;4992478;28;20026;-44
2023/05/05 12:07:24;;;;;;;12.55;5.53;;;25.90;99.90;;;;;;4993694;28;20128;-44
2023/05/05 12:09:50;;;;;;;11.05;4.97;;;25.90;99.90;;;;;;4976011;28;20025;-44
2023/05/05 12:12:17;;;;;;;8.63;4.38;;;25.90;99.90;;;;;;4993478;28;20027;-45
2023/05/05 12:14:51;;;;;;;9.82;4.82;;;25.90;99.90;;;;;;4993134;28;20022;-45
2023/05/05 12:17:21;;;;;;;7.43;4.15;;;25.90;99.90;;;;;;4993437;28;20113;-45
2023/05/05 12:19:51;;;;;;;9.95;4.05;;;25.90;99.90;;;;;;4993394;28;20023;-44
2023/05/05 12:22:18;;;;;;;9.90;4.70;;;26.00;99.90;;;;;;4991923;28;20444;-45
2023/05/05 12:24:44;;;;;;;12.55;4.65;;;26.00;99.90;;;;;;4992179;28;20104;-45
2023/05/05 12:27:10;;;;;;;9.57;4.18;;;26.00;99.90;;;;;;4993569;28;20473;-45
2023/05/05 12:29:36;;;;;;;7.63;3.80;;;26.00;99.90;;;;;;4989274;28;20026;-45
2023/05/05 12:32:03;;;;;;;6.30;3.92;;;26.00;99.90;;;;;;4980429;28;20473;-44
2023/05/05 12:34:30;;;;;;;6.70;3.67;;;26.10;99.90;;;;;;4993045;28;20030;-44
2023/05/05 12:36:56;;;;;;;11.10;4.07;;;26.10;99.90;;;;;;4993222;28;20022;-45
2023/05/05 12:39:32;;;;;;;10.38;3.70;;;26.10;99.90;;;;;;5005130;28;20476;-44
2023/05/05 12:42:02;;;;;;;11.55;3.95;;;26.20;99.90;;;;;;4984231;28;20034;-44
2023/05/05 12:44:35;;;;;;;9.02;3.70;;;26.10;99.90;;;;;;4992970;28;20019;-45
2023/05/05 12:47:00;;;;;;;10.23;3.45;;;26.10;99.90;;;;;;4993141;28;20030;-45
2023/05/05 12:49:26;;;;;;;16.48;4.45;;;26.20;99.90;;;;;;4992839;28;20081;-45